createdAt,value
2023-04-21T00:00:20.626Z,36.37
2023-04-21T00:02:51.914Z,31.20
2023-04-21T00:05:26.005Z,30.37
2023-04-21T00:07:59.265Z,38.50
2023-04-21T00:10:30.256Z,37.60
2023-04-21T00:12:59.772Z,37.63
2023-04-21T00:15:27.951Z,35.90
2023-04-21T00:17:56.180Z,34.63
2023-04-21T00:20:26.760Z,32.90
2023-04-21T00:22:54.951Z,32.13
2023-04-21T00:25:23.742Z,34.30
2023-04-21T00:27:51.907Z,34.73
2023-04-21T00:30:21.536Z,36.73
2023-04-21T00:33:00.374Z,35.90
2023-04-21T00:35:30.868Z,33.90
2023-04-21T00:38:02.123Z,37.57
2023-04-21T00:40:32.536Z,33.87
2023-04-21T00:43:09.329Z,38.97
2023-04-21T00:45:42.216Z,35.70
2023-04-21T00:48:15.268Z,35.03
2023-04-21T00:50:44.353Z,35.53
2023-04-21T00:53:13.570Z,40.83
2023-04-21T00:55:44.544Z,36.53
2023-04-21T00:58:15.631Z,34.40
2023-04-21T01:00:48.894Z,37.67
2023-04-21T01:03:21.195Z,39.37
2023-04-21T01:05:52.964Z,34.90
2023-04-21T01:08:21.068Z,37.43
2023-04-21T01:10:50.629Z,38.07
2023-04-21T01:13:22.020Z,37.23
2023-04-21T01:15:53.351Z,35.77
2023-04-21T01:18:22.133Z,39.43
2023-04-21T01:20:50.276Z,35.70
2023-04-21T01:23:21.193Z,39.53
2023-04-21T01:25:50.525Z,37.73
2023-04-21T01:28:23.758Z,39.63
2023-04-21T01:30:51.990Z,39.83
2023-04-21T01:33:23.655Z,38.93
2023-04-21T01:35:55.346Z,40.00
2023-04-21T01:38:27.396Z,38.97
2023-04-21T01:40:58.378Z,41.27
2023-04-21T01:43:29.944Z,39.13
2023-04-21T01:46:00.280Z,39.30
2023-04-21T01:48:31.533Z,39.40
2023-04-21T01:51:00.572Z,36.80
2023-04-21T01:53:31.343Z,39.03
2023-04-21T01:55:59.417Z,37.23
2023-04-21T01:58:27.558Z,39.57
2023-04-21T02:00:58.785Z,31.20
2023-04-21T02:03:28.033Z,28.77
2023-04-21T02:05:57.027Z,29.90
2023-04-21T02:08:28.318Z,33.30
2023-04-21T02:10:58.012Z,30.80
2023-04-21T02:13:28.306Z,30.70
2023-04-21T02:16:06.148Z,30.87
2023-04-21T02:18:41.411Z,30.10
2023-04-21T02:21:11.466Z,29.97
2023-04-21T02:23:42.023Z,33.17
2023-04-21T02:26:18.198Z,34.97
2023-04-21T02:28:49.636Z,34.87
2023-04-21T02:31:20.539Z,35.20
2023-04-21T02:33:51.945Z,36.03
2023-04-21T02:36:24.257Z,35.60
2023-04-21T02:38:52.498Z,39.03
2023-04-21T02:41:26.535Z,39.67
2023-04-21T02:43:55.036Z,34.33
2023-04-21T02:46:27.047Z,38.63
2023-04-21T02:48:56.446Z,40.63
2023-04-21T02:51:24.861Z,33.37
2023-04-21T02:53:52.989Z,35.13
2023-04-21T02:56:22.615Z,37.27
2023-04-21T02:58:50.723Z,38.47
2023-04-21T03:01:19.027Z,44.97
2023-04-21T03:03:55.516Z,37.87
2023-04-21T03:06:28.882Z,37.90
2023-04-21T03:08:59.537Z,35.80
2023-04-21T03:11:32.397Z,40.90
2023-04-21T03:14:02.417Z,38.67
2023-04-21T03:16:30.648Z,41.30
2023-04-21T03:19:03.319Z,39.13
2023-04-21T03:21:31.617Z,42.07
2023-04-21T03:24:06.640Z,39.60
2023-04-21T03:26:36.089Z,31.57
2023-04-21T03:29:14.002Z,36.20
2023-04-21T03:31:44.322Z,41.37
2023-04-21T03:34:12.471Z,32.43
2023-04-21T03:36:44.019Z,42.43
2023-04-21T03:39:20.441Z,35.37
2023-04-21T03:41:51.835Z,35.37
2023-04-21T03:44:19.872Z,38.73
2023-04-21T03:46:47.980Z,37.10
2023-04-21T03:49:16.111Z,42.07
2023-04-21T03:51:45.840Z,35.80
2023-04-21T03:54:14.160Z,38.67
2023-04-21T03:56:42.309Z,38.77
2023-04-21T03:59:15.704Z,38.63
2023-04-21T04:01:46.246Z,43.13
2023-04-21T04:04:17.595Z,41.10
2023-04-21T04:06:48.351Z,40.17
2023-04-21T04:09:16.434Z,41.33
2023-04-21T04:11:44.585Z,41.37
2023-04-21T04:14:15.272Z,48.13
2023-04-21T04:16:46.367Z,46.27
2023-04-21T04:19:17.869Z,48.07
2023-04-21T04:21:49.270Z,48.60
2023-04-21T04:24:19.460Z,50.20
2023-04-21T04:26:51.784Z,48.27
2023-04-21T04:29:22.133Z,47.77
2023-04-21T04:31:51.213Z,48.83
2023-04-21T04:34:20.905Z,47.17
2023-04-21T04:36:51.784Z,49.77
2023-04-21T04:39:20.060Z,55.77
2023-04-21T04:41:48.736Z,49.90
2023-04-21T04:44:21.996Z,52.63
2023-04-21T04:46:54.842Z,50.93
2023-04-21T04:49:24.143Z,58.00
2023-04-21T04:51:52.508Z,50.70
2023-04-21T04:54:20.845Z,54.13
2023-04-21T04:56:49.384Z,57.60
2023-04-21T04:59:17.451Z,54.53
2023-04-21T05:01:55.188Z,58.00
2023-04-21T05:04:23.897Z,50.67
2023-04-21T05:06:57.066Z,55.90
2023-04-21T05:09:29.467Z,56.10
2023-04-21T05:12:00.282Z,55.57
2023-04-21T05:14:28.768Z,50.20
2023-04-21T05:16:59.649Z,56.67
2023-04-21T05:19:29.753Z,54.47
2023-04-21T05:22:01.671Z,53.27
2023-04-21T05:24:29.763Z,54.47
2023-04-21T05:27:03.004Z,52.63
2023-04-21T05:29:31.750Z,57.33
2023-04-21T05:32:02.844Z,53.93
2023-04-21T05:34:35.219Z,53.90
2023-04-21T05:37:03.468Z,57.10
2023-04-21T05:39:34.367Z,59.23
2023-04-21T05:42:03.140Z,58.10
2023-04-21T05:44:34.199Z,54.70
2023-04-21T05:47:05.144Z,58.17
2023-04-21T05:49:33.398Z,56.33
2023-04-21T05:52:01.594Z,55.80
2023-04-21T05:54:30.008Z,57.20
2023-04-21T05:56:58.096Z,58.27
2023-04-21T05:59:29.219Z,57.37
2023-04-21T06:01:57.422Z,56.40
2023-04-21T06:04:27.362Z,55.07
2023-04-21T06:06:58.153Z,58.73
2023-04-21T06:09:26.282Z,58.77
2023-04-21T06:11:57.699Z,57.80
2023-04-21T06:14:25.851Z,56.47
2023-04-21T06:16:57.081Z,55.50
2023-04-21T06:19:27.977Z,53.47
2023-04-21T06:21:57.687Z,52.10
2023-04-21T06:24:26.137Z,53.00
2023-04-21T06:26:54.519Z,54.60
2023-04-21T06:29:25.720Z,51.20
2023-04-21T06:31:56.891Z,53.90
2023-04-21T06:34:27.782Z,50.50
2023-04-21T06:37:00.671Z,58.50
2023-04-21T06:39:29.072Z,56.00
2023-04-21T06:41:58.173Z,48.50
2023-04-21T06:44:32.847Z,50.10
2023-04-21T06:47:01.057Z,49.10
2023-04-21T06:49:34.163Z,50.27
2023-04-21T06:52:02.357Z,49.77
2023-04-21T06:54:39.655Z,49.33
2023-04-21T06:57:07.769Z,49.40
2023-04-21T06:59:36.083Z,47.20
2023-04-21T07:02:04.291Z,46.43
2023-04-21T07:04:37.004Z,49.13
2023-04-21T07:07:06.979Z,48.03
2023-04-21T07:09:35.090Z,49.30
2023-04-21T07:12:03.179Z,45.07
2023-04-21T07:14:31.248Z,45.30
2023-04-21T07:17:01.737Z,47.13
2023-04-21T07:19:30.068Z,47.60
2023-04-21T07:22:01.083Z,46.77
2023-04-21T07:24:29.394Z,46.50
2023-04-21T07:26:57.462Z,47.10
2023-04-21T07:29:25.683Z,44.20
2023-04-21T07:31:54.564Z,47.00
2023-04-21T07:34:22.802Z,44.53
2023-04-21T07:36:56.891Z,46.27
2023-04-21T07:39:26.447Z,44.03
2023-04-21T07:41:55.836Z,44.13
2023-04-21T07:44:24.036Z,43.20
2023-04-21T07:46:52.108Z,43.27
2023-04-21T07:49:20.510Z,42.80
2023-04-21T07:51:51.936Z,45.53
2023-04-21T07:54:20.032Z,42.87
2023-04-21T07:56:49.530Z,43.53
2023-04-21T07:59:17.877Z,41.07
2023-04-21T08:01:51.674Z,39.93
2023-04-21T08:04:20.239Z,39.87
2023-04-21T08:06:51.912Z,39.87
2023-04-21T08:09:20.523Z,39.53
2023-04-21T08:11:52.837Z,37.10
2023-04-21T08:14:22.355Z,37.70
2023-04-21T08:16:50.945Z,33.67
2023-04-21T08:19:20.625Z,32.50
2023-04-21T08:21:53.946Z,31.43
2023-04-21T08:24:22.376Z,31.93
2023-04-21T08:26:52.311Z,29.43
2023-04-21T08:29:20.381Z,29.27
2023-04-21T08:31:48.572Z,30.10
2023-04-21T08:34:16.890Z,29.10
2023-04-21T08:36:46.963Z,28.67
2023-04-21T08:39:16.267Z,26.80
2023-04-21T08:41:45.401Z,26.47
2023-04-21T08:44:15.898Z,26.20
2023-04-21T08:46:46.153Z,26.50
2023-04-21T08:49:18.372Z,24.70
2023-04-21T08:51:47.438Z,24.87
2023-04-21T08:54:15.463Z,24.27
2023-04-21T08:56:43.600Z,23.80
2023-04-21T08:59:11.965Z,24.17
2023-04-21T09:02:13.745Z,25.03
2023-04-21T09:04:42.368Z,23.40
2023-04-21T09:07:11.334Z,23.80
2023-04-21T09:09:54.051Z,23.20
2023-04-21T09:12:22.511Z,21.77
2023-04-21T09:14:51.433Z,22.67
2023-04-21T09:17:23.215Z,24.60
2023-04-21T09:19:51.462Z,24.00
2023-04-21T09:22:20.544Z,23.97
2023-04-21T09:24:57.890Z,24.30
2023-04-21T09:27:26.011Z,24.50
2023-04-21T09:29:54.113Z,25.57
2023-04-21T09:32:23.723Z,24.13
2023-04-21T09:34:51.868Z,22.57
2023-04-21T09:37:24.282Z,23.70
2023-04-21T09:40:03.382Z,23.10
2023-04-21T09:42:37.804Z,24.30
2023-04-21T09:45:32.484Z,23.40
2023-04-21T09:48:03.626Z,22.10
2023-04-21T09:53:07.214Z,23.20
2023-04-21T09:55:36.281Z,22.60
2023-04-21T09:58:06.892Z,20.60
2023-04-21T10:00:39.912Z,18.40
2023-04-21T10:03:12.123Z,18.47
2023-04-21T10:05:42.717Z,18.40
2023-04-21T10:08:12.714Z,19.00
2023-04-21T10:10:41.450Z,18.37
2023-04-21T10:13:16.684Z,19.77
2023-04-21T10:15:45.183Z,21.73
2023-04-21T10:18:25.221Z,19.83
2023-04-21T10:20:55.400Z,20.30
2023-04-21T10:23:32.518Z,19.53
2023-04-21T10:26:13.413Z,18.47
2023-04-21T10:28:53.107Z,20.53
2023-04-21T10:31:31.918Z,19.07
2023-04-21T10:34:30.183Z,19.30
2023-04-21T10:37:20.194Z,18.70
2023-04-21T10:39:55.805Z,19.83
2023-04-21T10:42:37.359Z,19.23
2023-04-21T10:45:13.192Z,17.50
2023-04-21T10:47:49.445Z,16.83
2023-04-21T10:50:23.836Z,17.83
2023-04-21T10:52:59.315Z,18.20
2023-04-21T10:55:30.153Z,18.37
2023-04-21T10:57:59.266Z,18.37
2023-04-21T11:00:27.513Z,19.60
2023-04-21T11:02:58.033Z,19.33
2023-04-21T11:05:38.301Z,17.70
2023-04-21T11:08:12.825Z,16.73
2023-04-21T11:10:54.470Z,19.90
2023-04-21T11:13:24.519Z,19.00
2023-04-21T11:16:05.956Z,19.53
2023-04-21T11:18:44.893Z,17.30
2023-04-21T11:21:21.601Z,18.03
2023-04-21T11:23:52.272Z,16.10
2023-04-21T11:26:31.455Z,17.23
2023-04-21T11:29:03.092Z,18.50
2023-04-21T11:31:31.759Z,17.00
2023-04-21T11:34:00.685Z,14.90
2023-04-21T11:36:30.444Z,15.30
2023-04-21T11:38:58.612Z,14.40
2023-04-21T11:41:27.182Z,14.67
2023-04-21T11:43:55.599Z,15.30
2023-04-21T11:46:26.688Z,13.70
2023-04-21T11:49:02.490Z,15.10
2023-04-21T11:51:36.767Z,14.93
2023-04-21T11:54:07.970Z,17.03
2023-04-21T11:56:38.031Z,19.80
2023-04-21T11:59:09.376Z,18.30
2023-04-21T12:01:44.966Z,19.50
2023-04-21T12:04:17.137Z,20.77
2023-04-21T12:06:48.822Z,18.87
2023-04-21T12:09:22.158Z,17.97
2023-04-21T12:11:52.198Z,18.20
2023-04-21T12:14:23.015Z,17.57
2023-04-21T12:16:53.298Z,16.30
2023-04-21T12:19:26.518Z,16.40
2023-04-21T12:21:57.308Z,17.03
2023-04-21T12:24:26.006Z,15.90
2023-04-21T12:26:54.667Z,16.33
2023-04-21T12:29:23.020Z,15.07
2023-04-21T12:31:51.304Z,14.80
2023-04-21T12:34:19.586Z,14.83
2023-04-21T12:36:47.822Z,13.73
2023-04-21T12:39:20.464Z,16.80
2023-04-21T12:41:48.894Z,17.63
2023-04-21T12:44:17.013Z,17.70
2023-04-21T12:46:45.166Z,17.77
2023-04-21T12:49:14.297Z,20.13
2023-04-21T12:51:45.409Z,20.23
2023-04-21T12:54:13.798Z,22.13
2023-04-21T12:56:43.875Z,23.50
2023-04-21T12:59:12.688Z,24.00
2023-04-21T13:01:42.679Z,24.77
2023-04-21T13:04:11.227Z,24.20
2023-04-21T13:06:40.571Z,21.87
2023-04-21T13:09:08.876Z,20.70
2023-04-21T13:11:37.082Z,21.47
2023-04-21T13:14:06.747Z,20.13
2023-04-21T13:16:34.939Z,18.80
2023-04-21T13:19:04.149Z,18.50
2023-04-21T13:21:32.706Z,20.83
2023-04-21T13:24:02.532Z,21.87
2023-04-21T13:26:33.274Z,21.70
2023-04-21T13:29:02.588Z,20.77
2023-04-21T13:31:32.412Z,19.80
2023-04-21T13:34:02.214Z,22.43
2023-04-21T13:36:31.342Z,23.10
2023-04-21T13:39:01.636Z,24.07
2023-04-21T13:41:30.119Z,25.80
2023-04-21T13:43:58.208Z,27.03
2023-04-21T13:46:26.459Z,27.50
2023-04-21T13:48:56.638Z,28.10
2023-04-21T13:51:24.905Z,27.33
2023-04-21T13:53:52.998Z,24.60
2023-04-21T13:56:21.040Z,25.20
2023-04-21T13:58:50.065Z,24.70
2023-04-21T14:01:20.672Z,25.30
2023-04-21T14:03:49.884Z,23.77
2023-04-21T14:06:19.618Z,25.77
2023-04-21T14:08:47.767Z,25.50
2023-04-21T14:11:16.002Z,24.47
2023-04-21T14:13:55.996Z,24.87
2023-04-21T14:16:32.599Z,25.40
2023-04-21T14:19:00.836Z,25.80
2023-04-21T14:21:30.987Z,26.87
2023-04-21T14:23:59.314Z,26.60
2023-04-21T14:26:27.712Z,27.77
2023-04-21T14:28:56.428Z,27.37
2023-04-21T14:31:30.159Z,28.87
2023-04-21T14:33:58.234Z,26.77
2023-04-21T14:36:27.286Z,27.27
2023-04-21T14:38:57.016Z,27.67
2023-04-21T14:41:25.688Z,27.27
2023-04-21T14:43:56.516Z,27.90
2023-04-21T14:46:24.995Z,28.60
2023-04-21T14:48:53.315Z,28.00
2023-04-21T14:51:21.854Z,26.00
2023-04-21T14:53:50.026Z,26.30
2023-04-21T14:56:19.774Z,29.67
2023-04-21T14:58:47.938Z,28.67
2023-04-21T15:01:16.228Z,28.30
2023-04-21T15:03:44.673Z,30.00
2023-04-21T15:06:12.890Z,29.70
2023-04-21T15:08:41.147Z,30.20
2023-04-21T15:11:09.368Z,32.13
2023-04-21T15:13:39.201Z,30.00
2023-04-21T15:16:07.875Z,30.53
2023-04-21T15:18:36.053Z,31.90
2023-04-21T15:21:04.527Z,31.33
2023-04-21T15:23:33.783Z,30.43
2023-04-21T15:26:02.012Z,31.87
2023-04-21T15:28:30.148Z,30.70
2023-04-21T15:30:59.625Z,29.73
2023-04-21T15:33:27.807Z,29.27
2023-04-21T15:35:55.954Z,30.53
2023-04-21T15:38:24.090Z,30.27
2023-04-21T15:41:00.760Z,31.00
2023-04-21T15:43:30.374Z,31.40
2023-04-21T15:45:59.915Z,34.23
2023-04-21T15:48:28.098Z,33.03
2023-04-21T15:50:57.328Z,32.57
2023-04-21T15:53:25.762Z,32.03
2023-04-21T15:55:53.901Z,33.50
2023-04-21T15:58:22.408Z,34.23
2023-04-21T16:00:50.772Z,34.70
2023-04-21T16:03:21.412Z,34.10
2023-04-21T16:05:49.847Z,31.63
2023-04-21T16:08:18.084Z,30.77
2023-04-21T16:10:46.419Z,30.77
2023-04-21T16:13:14.612Z,29.57
2023-04-21T16:15:42.850Z,27.37
2023-04-21T16:18:11.481Z,27.40
2023-04-21T16:20:41.652Z,27.10
2023-04-21T16:23:10.424Z,26.90
2023-04-21T16:25:38.744Z,26.00
2023-04-21T16:28:09.182Z,25.33
2023-04-21T16:30:38.542Z,25.37
2023-04-21T16:33:06.689Z,24.73
2023-04-21T16:35:35.013Z,23.67
2023-04-21T16:38:04.800Z,24.27
2023-04-21T16:40:33.157Z,22.70
2023-04-21T16:43:01.307Z,23.33
2023-04-21T16:45:31.449Z,21.83
2023-04-21T16:47:59.742Z,23.27
2023-04-21T16:50:30.865Z,22.90
2023-04-21T16:52:58.979Z,23.17
2023-04-21T16:55:29.320Z,23.37
2023-04-21T16:57:57.424Z,24.40
2023-04-21T17:00:25.727Z,23.83
2023-04-21T17:02:54.080Z,19.27
2023-04-21T17:05:23.193Z,17.90
2023-04-21T17:07:51.834Z,17.30
2023-04-21T17:10:20.264Z,19.27
2023-04-21T17:12:49.727Z,18.80
2023-04-21T17:15:18.001Z,19.23
2023-04-21T17:17:47.193Z,19.47
2023-04-21T17:20:16.113Z,18.50
2023-04-21T17:22:44.428Z,17.40
2023-04-21T17:25:12.860Z,17.30
2023-04-21T17:27:41.602Z,17.87
2023-04-21T17:30:12.876Z,17.67
2023-04-21T17:32:41.573Z,12.77
2023-04-21T17:35:10.623Z,9.33
2023-04-21T17:37:38.800Z,11.00
2023-04-21T17:40:09.656Z,12.80
2023-04-21T17:42:37.758Z,11.90
2023-04-21T17:45:08.586Z,13.77
2023-04-21T17:47:38.182Z,16.07
2023-04-21T17:50:08.929Z,14.70
2023-04-21T17:52:37.217Z,13.40
2023-04-21T17:55:06.202Z,14.50
2023-04-21T17:57:34.461Z,14.30
2023-04-21T18:00:08.530Z,14.17
2023-04-21T18:02:38.111Z,17.10
2023-04-21T18:05:06.837Z,15.13
2023-04-21T18:07:35.091Z,15.70
2023-04-21T18:10:05.321Z,11.77
2023-04-21T18:12:33.494Z,14.03
2023-04-21T18:15:01.916Z,13.77
2023-04-21T18:17:31.275Z,13.30
2023-04-21T18:20:00.862Z,11.93
2023-04-21T18:22:28.960Z,10.10
2023-04-21T18:24:59.928Z,9.67
2023-04-21T18:27:31.112Z,10.67
2023-04-21T18:29:59.150Z,10.03
2023-04-21T18:32:27.403Z,11.50
2023-04-21T18:34:57.579Z,13.10
2023-04-21T18:37:26.996Z,15.00
2023-04-21T18:39:58.047Z,15.30
2023-04-21T18:42:27.198Z,13.37
2023-04-21T18:44:57.759Z,13.67
2023-04-21T18:47:26.685Z,17.97
2023-04-21T18:49:54.861Z,15.53
2023-04-21T18:52:22.919Z,14.57
2023-04-21T18:54:53.701Z,16.10
2023-04-21T18:57:22.034Z,15.23
2023-04-21T18:59:52.517Z,18.03
2023-04-21T19:02:20.726Z,19.00
2023-04-21T19:04:49.143Z,15.43
2023-04-21T19:07:17.265Z,14.83
2023-04-21T19:09:45.387Z,18.90
2023-04-21T19:12:16.096Z,20.60
2023-04-21T19:14:47.587Z,17.20
2023-04-21T19:17:19.199Z,19.50
2023-04-21T19:19:47.392Z,18.27
2023-04-21T19:22:15.823Z,17.70
2023-04-21T19:24:44.919Z,20.83
2023-04-21T19:27:14.712Z,16.80
2023-04-21T19:29:42.816Z,23.03
2023-04-21T19:32:15.941Z,20.13
2023-04-21T19:34:44.072Z,18.83
2023-04-21T19:37:12.157Z,17.97
2023-04-21T19:39:40.360Z,19.70
2023-04-21T19:42:11.976Z,19.47
2023-04-21T19:44:41.492Z,21.63
2023-04-21T19:47:09.741Z,17.30
2023-04-21T19:49:39.844Z,18.73
2023-04-21T19:52:08.123Z,19.40
2023-04-21T19:54:36.748Z,22.43
2023-04-21T19:57:05.382Z,21.77
2023-04-21T19:59:37.368Z,19.50
2023-04-21T20:02:07.321Z,21.20
2023-04-21T20:04:35.755Z,19.17
2023-04-21T20:07:03.944Z,21.10
2023-04-21T20:09:32.100Z,22.57
2023-04-21T20:12:00.147Z,22.57
2023-04-21T20:14:28.331Z,21.90
2023-04-21T20:16:56.584Z,20.97
2023-04-21T20:19:27.074Z,20.40
2023-04-21T20:21:55.352Z,19.83
2023-04-21T20:24:24.012Z,18.73
2023-04-21T20:26:52.601Z,17.03
2023-04-21T20:29:21.551Z,16.70
2023-04-21T20:31:49.688Z,17.43
2023-04-21T20:34:20.318Z,18.17
2023-04-21T20:36:49.796Z,20.27
2023-04-21T20:39:19.017Z,21.63
2023-04-21T20:41:50.998Z,21.00
2023-04-21T20:44:24.416Z,21.90
2023-04-21T20:46:52.614Z,24.90
2023-04-21T20:49:20.739Z,24.80
2023-04-21T20:51:57.921Z,26.63
2023-04-21T20:54:26.083Z,24.20
2023-04-21T20:56:55.047Z,28.63
2023-04-21T20:59:26.036Z,29.67
2023-04-21T21:01:54.166Z,27.07
2023-04-21T21:04:22.422Z,27.63
2023-04-21T21:06:52.052Z,29.63
2023-04-21T21:09:20.690Z,32.80
2023-04-21T21:11:48.948Z,32.37
2023-04-21T21:14:17.068Z,34.13
2023-04-21T21:16:45.298Z,38.00
2023-04-21T21:19:15.010Z,34.07
2023-04-21T21:21:43.187Z,37.23
2023-04-21T21:24:12.731Z,41.20
2023-04-21T21:26:42.651Z,37.67
2023-04-21T21:29:10.995Z,39.40
2023-04-21T21:31:44.511Z,38.73
2023-04-21T21:34:12.725Z,36.07
2023-04-21T21:36:43.078Z,34.83
2023-04-21T21:39:12.665Z,35.23
2023-04-21T21:41:40.780Z,34.53
2023-04-21T21:44:09.008Z,33.10
2023-04-21T21:46:37.283Z,33.87
2023-04-21T21:49:05.409Z,32.20
2023-04-21T21:51:33.755Z,31.23
2023-04-21T21:54:01.839Z,39.20
2023-04-21T21:56:31.381Z,34.17
2023-04-21T21:58:59.839Z,33.00
2023-04-21T22:01:28.183Z,38.40
2023-04-21T22:03:56.422Z,32.30
2023-04-21T22:06:26.784Z,34.17
2023-04-21T22:08:54.997Z,32.03
2023-04-21T22:11:23.137Z,35.47
2023-04-21T22:13:52.783Z,30.67
2023-04-21T22:16:20.873Z,35.13
2023-04-21T22:18:49.245Z,31.63
2023-04-21T22:21:17.595Z,33.10
2023-04-21T22:23:45.841Z,32.87
2023-04-21T22:26:16.063Z,32.47
2023-04-21T22:28:49.866Z,41.07
2023-04-21T22:31:19.364Z,38.33
2023-04-21T22:33:47.455Z,40.77
2023-04-21T22:36:15.733Z,36.93
2023-04-21T22:38:45.658Z,38.43
2023-04-21T22:41:13.833Z,35.67
2023-04-21T22:43:42.125Z,44.37
2023-04-21T22:46:10.277Z,38.27
2023-04-21T22:48:44.829Z,38.80
2023-04-21T22:51:14.349Z,43.40
2023-04-21T22:53:42.451Z,44.80
2023-04-21T22:56:10.590Z,43.00
2023-04-21T22:58:38.761Z,42.40
2023-04-21T23:01:09.292Z,43.70
2023-04-21T23:03:41.293Z,43.40
2023-04-21T23:06:11.770Z,53.87
2023-04-21T23:08:40.084Z,44.53
2023-04-21T23:11:08.248Z,46.10
2023-04-21T23:13:39.831Z,44.20
2023-04-21T23:16:08.190Z,44.17
2023-04-21T23:18:36.523Z,43.50
2023-04-21T23:21:06.086Z,42.40
2023-04-21T23:23:34.223Z,48.07
2023-04-21T23:26:02.437Z,43.67
2023-04-21T23:28:31.776Z,49.30
2023-04-21T23:30:59.911Z,44.17
2023-04-21T23:33:28.076Z,44.70
2023-04-21T23:35:56.326Z,44.57
2023-04-21T23:38:25.963Z,41.13
2023-04-21T23:40:55.855Z,49.83
2023-04-21T23:43:24.035Z,48.90
2023-04-21T23:45:52.497Z,53.17
2023-04-21T23:48:22.794Z,52.37
2023-04-21T23:50:51.047Z,58.77
2023-04-21T23:53:26.641Z,51.33
2023-04-21T23:55:57.548Z,50.40
2023-04-21T23:58:25.770Z,42.80
